createdAt,value
2018-12-10T00:02:07.888Z,4.23
2018-12-10T00:04:34.352Z,3.27
2018-12-10T00:07:00.771Z,3.13
2018-12-10T00:09:27.161Z,4.00
2018-12-10T00:11:53.591Z,6.13
2018-12-10T00:14:19.990Z,7.93
2018-12-10T00:16:46.407Z,8.03
2018-12-10T00:19:12.855Z,5.80
2018-12-10T00:21:39.641Z,6.00
2018-12-10T00:24:06.021Z,3.97
2018-12-10T00:26:32.447Z,4.50
2018-12-10T00:28:58.885Z,4.40
2018-12-10T00:31:26.443Z,3.30
2018-12-10T00:33:53.278Z,4.00
2018-12-10T00:36:19.681Z,3.30
2018-12-10T00:38:46.120Z,2.57
2018-12-10T00:41:12.518Z,3.57
2018-12-10T00:43:38.951Z,2.97
2018-12-10T00:46:05.530Z,2.13
2018-12-10T00:48:32.419Z,2.63
2018-12-10T00:50:58.952Z,2.83
2018-12-10T00:53:25.388Z,2.13
2018-12-10T00:55:51.806Z,2.50
2018-12-10T00:58:18.202Z,2.53
2018-12-10T01:00:44.684Z,4.03
2018-12-10T01:03:11.127Z,2.50
2018-12-10T01:05:37.548Z,2.10
2018-12-10T01:08:04.100Z,3.07
2018-12-10T01:10:30.479Z,3.20
2018-12-10T01:12:56.922Z,2.53
2018-12-10T01:15:23.303Z,2.77
2018-12-10T01:17:49.727Z,3.00
2018-12-10T01:20:16.194Z,2.53
2018-12-10T01:22:42.612Z,2.83
2018-12-10T01:25:09.035Z,3.10
2018-12-10T01:27:35.439Z,2.63
2018-12-10T01:30:02.587Z,2.70
2018-12-10T01:32:29.038Z,2.90
2018-12-10T01:34:55.464Z,2.53
2018-12-10T01:37:21.908Z,2.37
2018-12-10T01:39:48.386Z,3.07
2018-12-10T01:42:14.928Z,3.23
2018-12-10T01:44:41.664Z,3.83
2018-12-10T01:47:08.088Z,3.70
2018-12-10T01:49:34.451Z,4.50
2018-12-10T01:52:00.870Z,5.60
2018-12-10T01:54:27.342Z,4.53
2018-12-10T01:56:53.729Z,3.60
2018-12-10T01:59:20.517Z,3.03
2018-12-10T02:01:46.942Z,2.73
2018-12-10T02:04:13.365Z,2.80
2018-12-10T02:06:39.792Z,3.10
2018-12-10T02:09:06.342Z,2.93
2018-12-10T02:11:32.737Z,2.53
2018-12-10T02:13:59.149Z,2.40
2018-12-10T02:16:25.940Z,3.07
2018-12-10T02:18:53.391Z,4.03
2018-12-10T02:21:19.782Z,4.30
2018-12-10T02:23:48.462Z,5.70
2018-12-10T02:26:14.825Z,3.90
2018-12-10T02:28:47.219Z,6.30
2018-12-10T02:31:13.587Z,5.70
2018-12-10T02:33:39.976Z,2.97
2018-12-10T02:36:06.419Z,2.60
2018-12-10T02:38:32.839Z,2.30
2018-12-10T02:40:59.248Z,2.10
2018-12-10T02:43:25.681Z,1.93
2018-12-10T02:45:52.066Z,1.67
2018-12-10T02:48:18.518Z,2.33
2018-12-10T02:50:45.025Z,2.47
2018-12-10T02:53:11.468Z,1.77
2018-12-10T02:55:37.855Z,1.80
2018-12-10T02:58:04.276Z,2.77
2018-12-10T03:00:31.633Z,2.07
2018-12-10T03:02:58.070Z,1.57
2018-12-10T03:05:24.459Z,1.80
2018-12-10T03:07:51.234Z,2.23
2018-12-10T03:10:17.606Z,2.00
2018-12-10T03:12:44.195Z,1.87
2018-12-10T03:15:10.613Z,2.07
2018-12-10T03:17:37.114Z,2.73
2018-12-10T03:20:03.734Z,1.80
2018-12-10T03:22:30.173Z,2.13
2018-12-10T03:24:56.566Z,2.30
2018-12-10T03:27:22.972Z,2.70
2018-12-10T03:29:49.398Z,2.70
2018-12-10T03:32:15.795Z,2.53
2018-12-10T03:34:42.214Z,2.97
2018-12-10T03:37:08.624Z,2.67
2018-12-10T03:39:35.052Z,2.07
2018-12-10T03:42:01.482Z,2.17
2018-12-10T03:44:27.929Z,2.70
2018-12-10T03:46:54.667Z,2.00
2018-12-10T03:49:21.075Z,2.53
2018-12-10T03:51:47.856Z,3.07
2018-12-10T03:54:14.246Z,2.60
2018-12-10T03:56:40.699Z,2.23
2018-12-10T03:59:07.094Z,2.13
2018-12-10T04:01:33.483Z,2.63
2018-12-10T04:03:59.915Z,2.57
2018-12-10T04:06:26.314Z,2.20
2018-12-10T04:08:53.079Z,2.30
2018-12-10T04:11:19.477Z,2.40
2018-12-10T04:13:47.799Z,2.30
2018-12-10T04:16:14.304Z,2.53
2018-12-10T04:18:40.867Z,2.17
2018-12-10T04:21:07.305Z,3.30
2018-12-10T04:23:33.797Z,2.47
2018-12-10T04:26:00.275Z,1.93
2018-12-10T04:28:26.693Z,2.00
2018-12-10T04:30:53.077Z,2.57
2018-12-10T04:33:19.487Z,1.90
2018-12-10T04:35:45.999Z,2.30
2018-12-10T04:38:12.567Z,2.63
2018-12-10T04:40:38.964Z,2.90
2018-12-10T04:43:05.364Z,1.90
2018-12-10T04:45:32.981Z,1.90
2018-12-10T04:47:59.472Z,1.93
2018-12-10T04:50:25.907Z,1.77
2018-12-10T04:52:52.319Z,2.90
2018-12-10T04:55:18.706Z,2.43
2018-12-10T04:57:45.116Z,1.93
2018-12-10T05:00:11.623Z,1.93
2018-12-10T05:02:38.618Z,2.30
2018-12-10T05:05:06.361Z,1.90
2018-12-10T05:07:33.497Z,1.97
2018-12-10T05:09:59.911Z,2.17
2018-12-10T05:12:26.391Z,1.77
2018-12-10T05:14:52.810Z,2.47
2018-12-10T05:17:19.426Z,1.73
2018-12-10T05:19:46.736Z,2.13
2018-12-10T05:22:13.627Z,1.80
2018-12-10T05:24:40.082Z,2.03
2018-12-10T05:27:06.472Z,2.00
2018-12-10T05:29:32.923Z,2.67
2018-12-10T05:31:59.329Z,2.07
2018-12-10T05:34:25.753Z,2.20
2018-12-10T05:36:52.132Z,1.83
2018-12-10T05:39:18.554Z,1.97
2018-12-10T05:41:44.975Z,2.47
2018-12-10T05:44:11.416Z,1.90
2018-12-10T05:46:37.800Z,2.03
2018-12-10T05:49:04.215Z,2.27
2018-12-10T05:51:30.951Z,2.30
2018-12-10T05:53:57.394Z,2.30
2018-12-10T05:56:23.831Z,3.40
2018-12-10T05:58:50.249Z,5.17
2018-12-10T06:01:16.703Z,3.63
2018-12-10T06:03:43.285Z,3.37
2018-12-10T06:06:09.696Z,2.60
2018-12-10T06:08:36.121Z,2.83
2018-12-10T06:11:02.548Z,2.97
2018-12-10T06:13:29.046Z,3.10
2018-12-10T06:15:55.426Z,2.40
2018-12-10T06:18:21.891Z,2.93
2018-12-10T06:20:48.379Z,3.23
2018-12-10T06:23:14.870Z,3.40
2018-12-10T06:25:41.296Z,3.70
2018-12-10T06:28:07.691Z,3.63
2018-12-10T06:30:34.121Z,3.03
2018-12-10T06:33:00.662Z,3.60
2018-12-10T06:35:27.101Z,3.50
2018-12-10T06:37:53.554Z,3.97
2018-12-10T06:40:20.028Z,3.50
2018-12-10T06:42:46.782Z,3.70
2018-12-10T06:45:13.350Z,3.37
2018-12-10T06:47:39.763Z,3.97
2018-12-10T06:50:06.609Z,3.90
2018-12-10T06:52:33.027Z,3.70
2018-12-10T06:55:01.487Z,3.37
2018-12-10T06:57:27.904Z,3.90
2018-12-10T06:59:54.690Z,4.47
2018-12-10T07:02:21.261Z,3.97
2018-12-10T07:04:47.800Z,3.87
2018-12-10T07:07:14.276Z,3.77
2018-12-10T07:09:40.706Z,3.73
2018-12-10T07:12:08.352Z,3.60
2018-12-10T07:14:34.810Z,3.10
2018-12-10T07:17:01.204Z,4.33
2018-12-10T07:19:27.636Z,3.03
2018-12-10T07:21:54.103Z,2.93
2018-12-10T07:24:20.535Z,2.97
2018-12-10T07:26:46.987Z,3.50
2018-12-10T07:29:14.122Z,3.70
2018-12-10T07:31:40.635Z,2.90
2018-12-10T07:34:07.221Z,2.97
2018-12-10T07:36:33.675Z,3.20
2018-12-10T07:39:00.141Z,2.80
2018-12-10T07:41:26.620Z,2.93
2018-12-10T07:43:52.988Z,3.20
2018-12-10T07:46:19.473Z,2.97
2018-12-10T07:48:46.263Z,2.97
2018-12-10T07:51:12.720Z,2.90
2018-12-10T07:53:39.122Z,2.53
2018-12-10T07:56:07.507Z,2.70
2018-12-10T07:58:34.124Z,2.43
2018-12-10T08:01:00.646Z,3.03
2018-12-10T08:03:27.170Z,2.50
2018-12-10T08:05:53.675Z,2.63
2018-12-10T08:08:20.145Z,2.97
2018-12-10T08:10:46.610Z,3.13
2018-12-10T08:13:13.032Z,2.60
2018-12-10T08:15:40.689Z,2.70
2018-12-10T08:18:07.166Z,2.87
2018-12-10T08:20:33.642Z,2.77
2018-12-10T08:23:00.035Z,2.70
2018-12-10T08:25:26.435Z,2.20
2018-12-10T08:27:53.316Z,2.60
2018-12-10T08:30:19.792Z,2.87
2018-12-10T08:32:46.606Z,2.53
2018-12-10T08:35:13.442Z,2.70
2018-12-10T08:37:39.853Z,2.70
2018-12-10T08:40:06.561Z,2.53
2018-12-10T08:42:32.964Z,2.40
2018-12-10T08:44:59.744Z,2.47
2018-12-10T08:47:26.270Z,3.00
2018-12-10T08:49:52.858Z,2.70
2018-12-10T08:52:19.311Z,2.63
2018-12-10T08:54:45.888Z,2.57
2018-12-10T08:57:13.996Z,2.90
2018-12-10T08:59:41.288Z,2.93
2018-12-10T09:02:07.877Z,2.80
2018-12-10T09:04:34.345Z,2.70
2018-12-10T09:07:00.833Z,2.70
2018-12-10T09:09:27.607Z,2.30
2018-12-10T09:11:54.086Z,2.80
2018-12-10T09:14:20.535Z,3.17
2018-12-10T09:16:47.079Z,2.77
2018-12-10T09:19:13.679Z,2.40
2018-12-10T09:21:40.099Z,2.57
2018-12-10T09:24:06.501Z,2.50
2018-12-10T09:26:32.919Z,2.57
2018-12-10T09:28:59.333Z,2.40
2018-12-10T09:31:26.132Z,2.37
2018-12-10T09:33:52.539Z,2.03
2018-12-10T09:36:18.956Z,2.73
2018-12-10T09:38:45.384Z,2.60
2018-12-10T09:41:12.765Z,2.63
2018-12-10T09:43:39.678Z,3.23
2018-12-10T09:46:06.083Z,2.80
2018-12-10T09:48:32.854Z,2.70
2018-12-10T09:50:59.282Z,3.33
2018-12-10T09:53:25.702Z,2.53
2018-12-10T09:55:52.218Z,2.07
2018-12-10T09:58:18.704Z,2.47
2018-12-10T10:00:45.229Z,3.10
2018-12-10T10:03:11.602Z,2.30
2018-12-10T10:05:38.451Z,2.70
2018-12-10T10:08:04.968Z,2.60
2018-12-10T10:10:31.373Z,3.50
2018-12-10T10:12:57.762Z,2.80
2018-12-10T10:15:24.176Z,2.77
2018-12-10T10:17:50.915Z,2.80
2018-12-10T10:20:17.746Z,3.13
2018-12-10T10:22:44.154Z,3.10
2018-12-10T10:25:10.570Z,3.27
2018-12-10T10:27:37.044Z,4.13
2018-12-10T10:30:03.926Z,4.73
2018-12-10T10:32:30.339Z,5.97
2018-12-10T10:34:56.825Z,5.37
2018-12-10T10:37:23.607Z,6.00
2018-12-10T10:39:50.058Z,5.63
2018-12-10T10:42:17.451Z,4.80
2018-12-10T10:44:44.240Z,2.70
2018-12-10T10:47:10.733Z,2.90
2018-12-10T10:49:37.677Z,2.87
2018-12-10T10:52:04.125Z,2.67
2018-12-10T10:54:30.749Z,3.20
2018-12-10T10:56:57.186Z,2.60
2018-12-10T10:59:23.821Z,2.70
2018-12-10T11:01:53.825Z,3.10
2018-12-10T11:04:20.326Z,2.90
2018-12-10T11:06:46.883Z,3.33
2018-12-10T11:09:15.534Z,3.60
2018-12-10T11:11:41.775Z,3.80
2018-12-10T11:14:08.297Z,3.40
2018-12-10T11:16:34.858Z,3.13
2018-12-10T11:19:01.443Z,3.60
2018-12-10T11:21:28.105Z,3.30
2018-12-10T11:23:54.617Z,3.53
2018-12-10T11:26:21.140Z,3.73
2018-12-10T11:28:47.711Z,3.13
2018-12-10T11:31:17.323Z,3.40
2018-12-10T11:33:42.675Z,2.33
2018-12-10T11:36:09.122Z,2.80
2018-12-10T11:38:37.495Z,2.70
2018-12-10T11:41:03.936Z,3.27
2018-12-10T11:43:30.316Z,3.90
2018-12-10T11:45:58.618Z,3.50
2018-12-10T11:48:25.538Z,2.70
2018-12-10T11:50:51.948Z,2.90
2018-12-10T11:53:18.324Z,2.93
2018-12-10T11:55:44.791Z,3.40
2018-12-10T11:58:11.176Z,2.73
2018-12-10T12:00:38.028Z,2.90
2018-12-10T12:03:04.434Z,3.30
2018-12-10T12:05:30.827Z,3.23
2018-12-10T12:07:57.237Z,3.53
2018-12-10T12:10:23.793Z,4.20
2018-12-10T12:12:50.199Z,4.23
2018-12-10T12:15:16.595Z,4.53
2018-12-10T12:17:43.391Z,4.10
2018-12-10T12:20:09.815Z,4.43
2018-12-10T12:22:36.362Z,3.93
2018-12-10T12:25:03.502Z,4.27
2018-12-10T12:27:30.731Z,3.37
2018-12-10T12:29:57.344Z,3.57
2018-12-10T12:32:24.135Z,3.10
2018-12-10T12:34:50.635Z,2.60
2018-12-10T12:37:17.445Z,2.97
2018-12-10T12:39:43.874Z,3.10
2018-12-10T12:42:10.433Z,3.20
2018-12-10T12:44:36.860Z,3.03
2018-12-10T12:47:03.624Z,3.17
2018-12-10T12:49:30.098Z,3.40
2018-12-10T12:51:57.763Z,3.87
2018-12-10T12:54:24.158Z,3.30
2018-12-10T12:56:50.603Z,4.13
2018-12-10T12:59:16.973Z,4.70
2018-12-10T13:01:49.125Z,5.90
2018-12-10T13:04:17.185Z,4.47
2018-12-10T13:06:43.714Z,4.43
2018-12-10T13:09:10.502Z,4.00
2018-12-10T13:11:37.371Z,4.00
2018-12-10T13:14:04.815Z,3.27
2018-12-10T13:16:31.274Z,3.03
2018-12-10T13:18:57.765Z,3.50
2018-12-10T13:21:24.199Z,3.70
2018-12-10T13:23:50.735Z,3.30
2018-12-10T13:26:17.256Z,3.50
2018-12-10T13:28:43.670Z,3.37
2018-12-10T13:31:13.514Z,3.43
2018-12-10T13:33:40.340Z,3.87
2018-12-10T13:36:06.973Z,3.73
2018-12-10T13:38:36.883Z,4.30
2018-12-10T13:41:03.642Z,2.87
2018-12-10T13:43:30.066Z,3.23
2018-12-10T13:45:56.597Z,4.20
2018-12-10T13:48:24.372Z,4.80
2018-12-10T13:50:50.781Z,5.00
2018-12-10T13:53:17.478Z,6.83
2018-12-10T13:55:43.862Z,7.90
2018-12-10T13:58:10.601Z,5.93
2018-12-10T14:00:37.060Z,4.40
2018-12-10T14:03:04.433Z,3.13
2018-12-10T14:05:31.289Z,2.77
2018-12-10T14:07:58.121Z,3.00
2018-12-10T14:10:24.979Z,2.60
2018-12-10T14:12:51.423Z,2.10
2018-12-10T14:15:17.895Z,2.20
2018-12-10T14:17:44.323Z,2.47
2018-12-10T14:20:11.174Z,2.20
2018-12-10T14:22:37.967Z,2.37
2018-12-10T14:25:04.757Z,2.43
2018-12-10T14:27:32.119Z,2.50
2018-12-10T14:29:59.041Z,2.30
2018-12-10T14:32:25.598Z,2.77
2018-12-10T14:34:51.986Z,2.60
2018-12-10T14:37:18.707Z,2.20
2018-12-10T14:39:45.269Z,2.93
2018-12-10T14:42:19.597Z,2.90
2018-12-10T14:44:46.030Z,2.63
2018-12-10T14:47:12.581Z,3.20
2018-12-10T14:49:41.086Z,2.30
2018-12-10T14:52:07.537Z,2.47
2018-12-10T14:54:35.360Z,3.30
2018-12-10T14:57:01.807Z,2.10
2018-12-10T14:59:28.293Z,2.50
2018-12-10T15:01:54.742Z,2.70
2018-12-10T15:04:22.202Z,2.60
2018-12-10T15:06:48.634Z,2.93
2018-12-10T15:09:15.396Z,3.57
2018-12-10T15:11:41.801Z,3.00
2018-12-10T15:14:08.400Z,3.33
2018-12-10T15:16:34.814Z,4.20
2018-12-10T15:19:01.364Z,3.27
2018-12-10T15:21:27.787Z,2.77
2018-12-10T15:23:55.605Z,2.77
2018-12-10T15:26:22.022Z,3.20
2018-12-10T15:28:48.799Z,2.30
2018-12-10T15:31:15.170Z,1.93
2018-12-10T15:33:41.591Z,2.40
2018-12-10T15:36:08.112Z,2.50
2018-12-10T15:38:34.940Z,3.00
2018-12-10T15:41:01.639Z,2.40
2018-12-10T15:43:28.094Z,2.60
2018-12-10T15:45:54.491Z,2.83
2018-12-10T15:48:20.983Z,2.67
2018-12-10T15:50:47.433Z,2.20
2018-12-10T15:53:14.267Z,2.50
2018-12-10T15:55:40.830Z,1.90
2018-12-10T15:58:07.304Z,2.33
2018-12-10T16:00:33.747Z,2.07
2018-12-10T16:03:00.170Z,2.00
2018-12-10T16:05:26.725Z,1.93
2018-12-10T16:07:53.520Z,2.10
2018-12-10T16:10:20.033Z,2.40
2018-12-10T16:12:46.605Z,2.67
2018-12-10T16:15:13.043Z,3.40
2018-12-10T16:17:39.490Z,3.40
2018-12-10T16:20:06.720Z,3.50
2018-12-10T16:22:33.328Z,2.97
2018-12-10T16:24:59.951Z,3.30
2018-12-10T16:27:26.736Z,3.83
2018-12-10T16:29:53.287Z,3.50
2018-12-10T16:32:19.983Z,3.77
2018-12-10T16:34:46.577Z,5.40
2018-12-10T16:37:13.582Z,3.87
2018-12-10T16:39:43.766Z,3.03
2018-12-10T16:42:09.011Z,3.40
2018-12-10T16:44:35.454Z,3.50
2018-12-10T16:47:01.921Z,4.00
2018-12-10T16:52:15.184Z,3.30
2018-12-10T16:54:41.615Z,3.30
2018-12-10T17:00:06.443Z,4.27
2018-12-10T17:02:32.839Z,3.80
2018-12-10T17:05:01.402Z,3.30
2018-12-10T17:07:28.203Z,3.30
2018-12-10T17:09:55.057Z,2.83
2018-12-10T17:12:21.469Z,3.17
2018-12-10T17:14:47.959Z,3.40
2018-12-10T17:17:14.416Z,3.70
2018-12-10T17:19:41.425Z,3.07
2018-12-10T17:22:07.840Z,3.10
2018-12-10T17:24:34.288Z,3.03
2018-12-10T17:27:02.277Z,3.00
2018-12-10T17:29:28.890Z,3.00
2018-12-10T17:31:55.358Z,3.13
2018-12-10T17:34:21.875Z,3.70
2018-12-10T17:36:48.318Z,2.87
2018-12-10T17:39:14.742Z,3.37
2018-12-10T17:41:42.269Z,2.30
2018-12-10T17:44:09.515Z,3.27
2018-12-10T17:46:35.929Z,2.70
2018-12-10T17:49:02.489Z,2.93
2018-12-10T17:51:29.329Z,2.77
2018-12-10T17:53:56.001Z,3.00
2018-12-10T17:56:22.660Z,3.40
2018-12-10T17:58:49.368Z,2.43
2018-12-10T18:01:15.808Z,2.40
2018-12-10T18:03:42.162Z,2.17
2018-12-10T18:06:08.598Z,2.57
2018-12-10T18:08:35.073Z,2.20
2018-12-10T18:11:02.895Z,2.47
2018-12-10T18:13:29.337Z,2.87
2018-12-10T18:15:55.778Z,2.70
2018-12-10T18:18:22.194Z,2.60
2018-12-10T18:20:49.074Z,2.97
2018-12-10T18:23:15.484Z,2.93
2018-12-10T18:25:42.309Z,2.50
2018-12-10T18:28:08.845Z,3.07
2018-12-10T18:30:35.592Z,3.67
2018-12-10T18:33:02.393Z,3.60
2018-12-10T18:35:28.806Z,3.97
2018-12-10T18:37:55.294Z,3.40
2018-12-10T18:40:21.852Z,3.17
2018-12-10T18:42:48.344Z,3.47
2018-12-10T18:45:15.297Z,3.10
2018-12-10T18:47:41.764Z,3.53
2018-12-10T18:50:08.838Z,3.30
2018-12-10T18:52:35.329Z,3.27
2018-12-10T18:55:02.852Z,3.80
2018-12-10T18:57:31.629Z,3.00
2018-12-10T18:59:58.092Z,3.30
2018-12-10T19:02:24.517Z,3.43
2018-12-10T19:04:50.947Z,2.90
2018-12-10T19:07:17.412Z,3.00
2018-12-10T19:09:44.572Z,3.50
2018-12-10T19:12:11.989Z,4.30
2018-12-10T19:14:38.842Z,3.00
2018-12-10T19:17:05.331Z,3.43
2018-12-10T19:19:32.291Z,3.90
2018-12-10T19:21:58.762Z,3.23
2018-12-10T19:24:25.250Z,3.60
2018-12-10T19:26:51.777Z,3.37
2018-12-10T19:29:18.257Z,3.20
2018-12-10T19:31:44.673Z,2.87
2018-12-10T19:34:11.136Z,3.30
2018-12-10T19:36:37.619Z,2.97
2018-12-10T19:39:05.321Z,3.40
2018-12-10T19:41:32.407Z,3.77
2018-12-10T19:43:58.852Z,4.90
2018-12-10T19:46:25.295Z,4.40
2018-12-10T19:48:52.625Z,4.80
2018-12-10T19:51:19.385Z,3.43
2018-12-10T19:53:45.898Z,3.57
2018-12-10T19:56:12.337Z,3.37
2018-12-10T19:58:38.816Z,2.80
2018-12-10T20:01:05.321Z,2.73
2018-12-10T20:03:31.784Z,3.10
2018-12-10T20:06:17.504Z,3.00
2018-12-10T20:08:44.050Z,3.10
2018-12-10T20:11:11.121Z,2.80
2018-12-10T20:13:37.769Z,3.90
2018-12-10T20:16:05.387Z,4.10
2018-12-10T20:18:31.964Z,3.73
2018-12-10T20:20:58.399Z,4.53
2018-12-10T20:23:24.888Z,4.10
2018-12-10T20:25:51.361Z,3.67
2018-12-10T20:28:18.066Z,4.27
2018-12-10T20:30:44.933Z,3.47
2018-12-10T20:33:11.749Z,3.27
2018-12-10T20:35:38.540Z,3.40
2018-12-10T20:38:04.979Z,5.33
2018-12-10T20:40:31.508Z,5.03
2018-12-10T20:42:58.888Z,6.53
2018-12-10T20:45:25.373Z,5.90
2018-12-10T20:47:51.850Z,6.17
2018-12-10T20:50:18.429Z,5.97
2018-12-10T20:52:44.846Z,4.90
2018-12-10T20:55:11.408Z,4.20
2018-12-10T20:57:41.523Z,4.07
2018-12-10T21:00:06.536Z,3.37
2018-12-10T21:02:33.330Z,2.83
2018-12-10T21:04:59.754Z,3.33
2018-12-10T21:07:26.644Z,3.90
2018-12-10T21:09:53.385Z,3.10
2018-12-10T21:12:20.183Z,3.77
2018-12-10T21:14:46.595Z,4.13
2018-12-10T21:17:13.199Z,3.90
2018-12-10T21:19:40.541Z,3.60
2018-12-10T21:22:07.077Z,4.03
2018-12-10T21:24:33.513Z,4.77
2018-12-10T21:26:59.937Z,4.17
2018-12-10T21:29:26.466Z,3.90
2018-12-10T21:31:53.455Z,2.93
2018-12-10T21:34:19.911Z,3.40
2018-12-10T21:36:46.325Z,3.13
2018-12-10T21:39:12.849Z,3.00
2018-12-10T21:41:39.252Z,2.83
2018-12-10T21:44:05.718Z,3.30
2018-12-10T21:46:32.138Z,3.37
2018-12-10T21:48:58.662Z,3.63
2018-12-10T21:51:25.055Z,3.00
2018-12-10T21:53:51.911Z,3.13
2018-12-10T21:56:18.315Z,2.80
2018-12-10T21:58:45.073Z,2.97
2018-12-10T22:01:12.457Z,2.90
2018-12-10T22:03:39.342Z,2.80
2018-12-10T22:06:05.961Z,2.90
2018-12-10T22:08:32.414Z,2.97
2018-12-10T22:10:58.841Z,2.97
2018-12-10T22:13:25.404Z,3.37
2018-12-10T22:15:51.859Z,3.77
2018-12-10T22:18:18.310Z,3.00
2018-12-10T22:20:45.172Z,3.17
2018-12-10T22:23:11.638Z,3.10
2018-12-10T22:25:38.185Z,3.20
2018-12-10T22:28:04.975Z,3.27
2018-12-10T22:30:31.422Z,3.20
2018-12-10T22:32:57.843Z,3.47
2018-12-10T22:35:24.282Z,3.50
2018-12-10T22:37:50.712Z,3.20
2018-12-10T22:40:17.178Z,3.73
2018-12-10T22:42:43.619Z,3.30
2018-12-10T22:45:10.072Z,3.00
2018-12-10T22:47:36.522Z,3.47
2018-12-10T22:50:04.898Z,3.63
2018-12-10T22:52:31.297Z,3.63
2018-12-10T22:54:57.787Z,4.33
2018-12-10T22:57:24.200Z,2.90
2018-12-10T22:59:50.609Z,3.60
2018-12-10T23:02:17.370Z,3.30
2018-12-10T23:04:46.088Z,3.20
2018-12-10T23:07:12.491Z,3.97
2018-12-10T23:09:39.133Z,3.20
2018-12-10T23:12:05.911Z,3.07
2018-12-10T23:14:32.367Z,3.80
2018-12-10T23:16:58.812Z,3.23
2018-12-10T23:19:26.020Z,3.10
2018-12-10T23:21:52.454Z,3.20
2018-12-10T23:24:18.880Z,3.20
2018-12-10T23:26:45.657Z,3.40
2018-12-10T23:29:12.206Z,3.47
2018-12-10T23:31:38.662Z,3.47
2018-12-10T23:34:05.066Z,3.13
2018-12-10T23:36:31.528Z,3.40
2018-12-10T23:38:57.922Z,3.93
2018-12-10T23:41:24.710Z,3.47
2018-12-10T23:43:51.117Z,3.90
2018-12-10T23:46:18.347Z,5.40
2018-12-10T23:48:44.794Z,6.43
2018-12-10T23:51:11.241Z,4.73
2018-12-10T23:53:37.671Z,3.83
2018-12-10T23:56:04.128Z,3.80
2018-12-10T23:58:30.521Z,4.07
